Main page
METAR-TAF:

METAR-TAF

Airports :

Limoges – Bellegarde Airport

Limoges, France

latitude: 45-52N, longitude: 001-11E, elevation: 396 m

Current weather observation

The report was made 22 minutes ago, at 23:00 UTC
Wind 2 kt from variable directions
Temperature 14°C
Humidity 58%
Pressure 999 hPa
Visibility 10 km or more
no clouds below 1500 m and no cumulonimbus

METAR: LFBL 222300Z AUTO VRB02KT CAVOK 14/06 Q0999 NOSIG

Time: 01:22 (23:22 UTC)

Forecast

The report was made 6 hours and 22 minutes ago, at 17:00 UTC
Forecast valid from 22 at 18 UTC to 23 at 18 UTC
Wind 5 kt from the South/Southeast
Visibility 10 km or more
no clouds below 1500 m and no cumulonimbus
Becoming
from 23 at 08 UTC to 23 at 10 UTC
Broken clouds at a height of 4000 ft
Few clouds at a height of 5000 ft, Cumulonimbus.
Temporary
from 23 at 14 UTC to 23 at 18 UTC
Wind 15 kt from the Southeast with gusts up to 25 kt

TAF: LFBL 221700Z 2218/2318 16005KT CAVOK BECMG 2308/2310 BKN040 FEW050CB TEMPO 2314/2318 14015G25KT

Weather observations and forecasts of more than 4000 airports (METAR and TAF reports).

The available stations are represented by yellow and red dots on the map.

Hover mouse over dot to see the name of the station.

Then click to see weather observations and forecasts.

To change the map : click on the green buttons with a black cross to zoom in, on the green button with a dash to zoom out, or on the green arrows for adjacent maps.


METAR-TAF: